Time;durP1;ratioP1;P1;durP2;ratioP2;P2;SDS_P1;SDS_P2;PMS_P1;PMS_P2;Temp;Humidity;BMP_temperature;BMP_pressure;BME280_temperature;BME280_humidity;BME280_pressure;Samples;Min_cycle;Max_cycle;Signal;HPM_P1;HPM_P2
2022/04/27 00:00:22;;;;;;;15.18;12.90;;;7.40;99.90;;;;;;4914573;29;20219;-83
2022/04/27 00:02:49;;;;;;;17.77;11.85;;;7.40;99.90;;;;;;4911766;29;20235;-85
2022/04/27 00:05:15;;;;;;;13.48;10.75;;;7.40;99.90;;;;;;4925916;29;20213;-83
2022/04/27 00:07:42;;;;;;;20.38;13.80;;;7.40;99.90;;;;;;4926585;29;20302;-86
2022/04/27 00:10:09;;;;;;;17.55;11.40;;;7.40;99.90;;;;;;4925136;29;20241;-86
2022/04/27 00:12:37;;;;;;;15.75;11.70;;;7.40;99.90;;;;;;4924490;29;20233;-85
2022/04/27 00:15:06;;;;;;;16.70;13.95;;;7.40;99.90;;;;;;4927084;29;20202;-85
2022/04/27 00:17:34;;;;;;;19.73;14.07;;;7.30;99.90;;;;;;4928192;29;20281;-87
2022/04/27 00:20:00;;;;;;;21.65;14.15;;;7.40;99.90;;;;;;4928489;29;20236;-86
2022/04/27 00:22:27;;;;;;;17.05;13.90;;;7.40;99.90;;;;;;4928929;29;20234;-86
2022/04/27 00:24:56;;;;;;;20.20;13.38;;;7.50;99.90;;;;;;4929270;29;20206;-86
2022/04/27 00:27:23;;;;;;;20.17;14.07;;;7.50;99.90;;;;;;4928919;29;20275;-85
2022/04/27 00:29:51;;;;;;;22.58;14.52;;;7.40;99.90;;;;;;4928661;29;20249;-84
2022/04/27 00:32:19;;;;;;;18.05;13.00;;;7.50;99.90;;;;;;4941608;23;20299;-81
2022/04/27 00:34:45;;;;;;;20.60;14.57;;;7.60;99.90;;;;;;4920018;29;20210;-82
2022/04/27 00:37:12;;;;;;;19.30;14.13;;;7.60;99.90;;;;;;4923979;29;20601;-82
2022/04/27 00:39:39;;;;;;;21.02;14.75;;;7.50;99.90;;;;;;4910994;29;20598;-82
2022/04/27 00:42:24;;;;;;;22.08;16.10;;;7.50;99.90;;;;;;4904632;29;20242;-82
2022/04/27 00:44:51;;;;;;;22.08;13.73;;;7.60;99.90;;;;;;4905241;29;20217;-82
2022/04/27 00:47:20;;;;;;;20.67;16.05;;;7.50;99.90;;;;;;4904889;29;20214;-82
2022/04/27 00:49:48;;;;;;;23.15;16.13;;;7.50;99.90;;;;;;4905045;29;20238;-82
2022/04/27 00:52:16;;;;;;;23.25;18.08;;;7.40;99.90;;;;;;4904841;29;20242;-82
2022/04/27 00:54:44;;;;;;;23.10;17.27;;;7.30;99.90;;;;;;4905511;29;20210;-82
2022/04/27 00:57:11;;;;;;;21.83;17.83;;;7.30;99.90;;;;;;4905635;29;20211;-82
2022/04/27 00:59:39;;;;;;;27.67;17.50;;;7.50;99.90;;;;;;4904749;29;20214;-82
2022/04/27 01:02:06;;;;;;;28.63;18.65;;;7.60;99.90;;;;;;4904376;29;20231;-82
2022/04/27 01:04:36;;;;;;;23.27;16.88;;;7.60;99.90;;;;;;4904963;29;20211;-82
2022/04/27 01:07:04;;;;;;;23.65;18.23;;;7.70;99.90;;;;;;4904953;29;20594;-82
2022/04/27 01:09:31;;;;;;;25.40;18.58;;;7.70;99.90;;;;;;4904005;29;20234;-82
2022/04/27 01:11:59;;;;;;;28.80;19.90;;;7.70;99.90;;;;;;4904036;29;20239;-82
2022/04/27 01:14:26;;;;;;;25.63;17.95;;;7.60;99.90;;;;;;4904972;29;20608;-82
2022/04/27 01:16:53;;;;;;;28.75;19.00;;;7.70;99.90;;;;;;4904332;29;20207;-82
2022/04/27 01:19:22;;;;;;;28.48;19.42;;;7.70;99.90;;;;;;4904258;29;20217;-82
2022/04/27 01:21:51;;;;;;;25.80;19.17;;;7.60;99.90;;;;;;4903869;29;20314;-81
2022/04/27 01:24:19;;;;;;;22.13;17.98;;;7.80;99.90;;;;;;4904327;29;20226;-82
2022/04/27 01:26:47;;;;;;;27.70;20.95;;;7.80;99.90;;;;;;4904220;29;20211;-81
2022/04/27 01:29:15;;;;;;;25.25;17.02;;;7.80;99.90;;;;;;4911716;29;20231;-79
2022/04/27 01:31:42;;;;;;;26.50;19.23;;;7.80;99.90;;;;;;4920086;29;20239;-81
2022/04/27 01:34:09;;;;;;;31.15;20.33;;;7.80;99.90;;;;;;4910194;29;20216;-82
2022/04/27 01:36:35;;;;;;;29.00;17.02;;;7.80;99.90;;;;;;4904606;29;20199;-82
2022/04/27 01:39:04;;;;;;;24.30;17.48;;;7.90;99.90;;;;;;4906839;29;20211;-82
2022/04/27 01:41:30;;;;;;;23.90;17.73;;;7.90;99.90;;;;;;4903877;29;20199;-81
2022/04/27 01:43:57;;;;;;;25.33;18.83;;;8.10;99.90;;;;;;4904685;29;20211;-82
2022/04/27 01:46:24;;;;;;;26.15;18.98;;;8.10;99.90;;;;;;4903882;29;20263;-82
2022/04/27 01:48:51;;;;;;;22.75;17.73;;;8.30;99.90;;;;;;4903836;29;20207;-82
2022/04/27 01:51:19;;;;;;;25.83;17.13;;;8.30;99.90;;;;;;4903585;29;20218;-82
2022/04/27 01:56:31;;;;;;;22.98;16.90;;;8.50;99.90;;;;;;4904071;29;20275;-81
2022/04/27 01:58:58;;;;;;;23.35;17.52;;;8.50;99.90;;;;;;4903915;29;20263;-82
2022/04/27 02:01:26;;;;;;;26.73;19.02;;;8.40;99.90;;;;;;4903445;29;20211;-81
2022/04/27 02:03:52;;;;;;;26.33;18.40;;;8.40;99.90;;;;;;4903086;29;20233;-81
2022/04/27 02:06:20;;;;;;;26.13;17.95;;;8.20;99.90;;;;;;4903761;29;20562;-81
2022/04/27 02:08:46;;;;;;;26.75;19.38;;;8.10;99.90;;;;;;4903659;29;20214;-81
2022/04/27 02:11:15;;;;;;;30.02;20.42;;;8.20;99.90;;;;;;4903656;29;20219;-81
2022/04/27 02:13:43;;;;;;;29.98;19.98;;;8.30;99.90;;;;;;4903263;29;20208;-81
2022/04/27 02:16:09;;;;;;;29.15;19.95;;;8.30;99.90;;;;;;4903821;29;20211;-81
2022/04/27 02:18:37;;;;;;;33.38;21.38;;;8.20;99.90;;;;;;4903257;29;20207;-81
2022/04/27 02:21:04;;;;;;;30.65;20.98;;;8.20;99.90;;;;;;4903020;29;20214;-81
2022/04/27 02:23:31;;;;;;;37.28;21.98;;;8.20;99.90;;;;;;4903069;29;20232;-81
2022/04/27 02:26:01;;;;;;;33.53;21.58;;;8.20;99.90;;;;;;4903297;29;20211;-81
2022/04/27 02:28:27;;;;;;;29.15;21.80;;;8.30;99.90;;;;;;4903091;29;20211;-81
2022/04/27 02:30:55;;;;;;;31.75;21.35;;;8.30;99.90;;;;;;4903143;29;20238;-81
2022/04/27 02:33:22;;;;;;;35.65;25.15;;;8.40;99.90;;;;;;4902832;29;20242;-81
2022/04/27 02:35:49;;;;;;;29.50;21.73;;;8.30;99.90;;;;;;4903119;29;20223;-81
2022/04/27 02:38:16;;;;;;;39.63;23.50;;;8.30;99.90;;;;;;4902695;29;20274;-81
2022/04/27 02:40:42;;;;;;;32.42;21.58;;;8.30;99.90;;;;;;4902199;29;20208;-80
2022/04/27 02:43:09;;;;;;;30.73;22.05;;;8.30;99.90;;;;;;4902924;29;20231;-81
2022/04/27 02:45:36;;;;;;;34.63;22.38;;;8.20;99.90;;;;;;4903272;29;20208;-81
2022/04/27 02:48:04;;;;;;;36.67;23.30;;;8.30;99.90;;;;;;4902765;29;20219;-81
2022/04/27 02:53:15;;;;;;;32.05;21.38;;;8.30;99.90;;;;;;4902034;29;20715;-82
2022/04/27 02:55:42;;;;;;;36.58;25.92;;;8.40;99.90;;;;;;4902502;29;20222;-81
2022/04/27 02:58:09;;;;;;;29.60;21.13;;;8.30;99.90;;;;;;4901905;29;20267;-81
2022/04/27 03:00:36;;;;;;;30.80;21.90;;;8.30;99.90;;;;;;4902605;29;20212;-81
2022/04/27 03:03:07;;;;;;;33.70;22.08;;;8.40;99.90;;;;;;4902714;29;20231;-81
2022/04/27 03:05:33;;;;;;;32.58;22.45;;;8.20;99.90;;;;;;4902099;29;20207;-81
2022/04/27 03:08:00;;;;;;;38.33;23.98;;;8.20;99.90;;;;;;4902461;29;20684;-81
2022/04/27 03:10:27;;;;;;;29.95;22.42;;;8.20;99.90;;;;;;4902576;29;20234;-81
2022/04/27 03:12:54;;;;;;;30.25;22.10;;;8.20;99.90;;;;;;4902188;29;20231;-81
2022/04/27 03:15:22;;;;;;;39.33;25.40;;;8.20;99.90;;;;;;4902160;29;20218;-81
2022/04/27 03:18:16;;;;;;;31.83;21.17;;;8.30;99.90;;;;;;4902497;29;20238;-81
2022/04/27 03:20:37;;;;;;;39.70;23.52;;;8.30;99.90;;;;;;4902014;29;20704;-81
2022/04/27 03:23:04;;;;;;;36.65;24.80;;;8.30;99.90;;;;;;4902011;29;20733;-81
2022/04/27 03:25:30;;;;;;;37.97;25.20;;;8.30;99.90;;;;;;4902200;29;20215;-81
2022/04/27 03:27:57;;;;;;;36.83;24.10;;;8.30;99.90;;;;;;4891933;29;20207;-81
2022/04/27 03:30:24;;;;;;;35.47;23.83;;;8.40;99.90;;;;;;4901901;29;20231;-81
2022/04/27 03:32:50;;;;;;;31.65;22.48;;;8.50;99.90;;;;;;4901284;29;20246;-81
2022/04/27 03:35:17;;;;;;;36.25;24.15;;;8.30;99.90;;;;;;4908268;29;20223;-80
2022/04/27 03:37:45;;;;;;;31.77;22.25;;;8.30;99.90;;;;;;4907489;29;20215;-80
2022/04/27 03:40:12;;;;;;;30.90;21.48;;;8.40;99.90;;;;;;4908164;29;20214;-80
2022/04/27 03:42:39;;;;;;;29.98;20.55;;;8.50;99.90;;;;;;4908700;29;20826;-80
2022/04/27 03:45:07;;;;;;;34.60;22.60;;;8.50;99.90;;;;;;4908649;29;20211;-80
2022/04/27 03:47:33;;;;;;;35.90;22.80;;;8.50;99.90;;;;;;4908832;29;20219;-80
2022/04/27 03:50:04;;;;;;;25.98;19.35;;;8.70;99.90;;;;;;4911135;29;20319;-80
2022/04/27 03:52:30;;;;;;;27.90;19.85;;;8.50;99.90;;;;;;4912892;29;20264;-80
2022/04/27 03:55:00;;;;;;;32.55;20.40;;;8.50;99.90;;;;;;4912256;29;20213;-80
2022/04/27 03:57:27;;;;;;;25.17;17.67;;;8.50;99.90;;;;;;4913048;29;20238;-80
2022/04/27 03:59:54;;;;;;;27.90;19.10;;;8.40;99.90;;;;;;4911746;29;20203;-80
2022/04/27 04:02:21;;;;;;;31.58;21.65;;;8.30;99.90;;;;;;4911991;29;20257;-80
2022/04/27 04:04:48;;;;;;;30.20;18.65;;;8.40;99.90;;;;;;4912158;29;20222;-80
2022/04/27 04:07:15;;;;;;;26.30;19.33;;;8.40;99.90;;;;;;4912236;29;20399;-80
2022/04/27 04:09:42;;;;;;;29.55;20.75;;;8.40;99.90;;;;;;4912145;29;20345;-80
2022/04/27 04:12:10;;;;;;;32.10;20.92;;;8.30;99.90;;;;;;4911777;29;20227;-80
2022/04/27 04:14:37;;;;;;;29.33;19.50;;;8.40;99.90;;;;;;4911978;29;20211;-80
2022/04/27 04:17:04;;;;;;;32.10;20.00;;;8.40;99.90;;;;;;4912164;29;20676;-80
2022/04/27 04:19:32;;;;;;;27.55;19.95;;;8.60;99.90;;;;;;4912317;29;20214;-81
2022/04/27 04:21:59;;;;;;;27.20;19.52;;;8.60;99.90;;;;;;4911781;29;20240;-80
2022/04/27 04:24:26;;;;;;;26.58;19.48;;;8.70;99.90;;;;;;4912373;29;20215;-81
2022/04/27 04:29:39;;;;;;;29.88;20.13;;;8.90;99.90;;;;;;4912467;29;20267;-81
2022/04/27 04:32:06;;;;;;;27.13;19.35;;;8.90;99.90;;;;;;4911511;29;20659;-80
2022/04/27 04:34:33;;;;;;;26.83;18.67;;;8.90;99.90;;;;;;4912202;29;20216;-80
2022/04/27 04:37:00;;;;;;;25.85;17.50;;;9.10;99.90;;;;;;4911762;29;20235;-79
2022/04/27 04:39:26;;;;;;;22.92;18.17;;;9.20;99.90;;;;;;4911740;29;20224;-80
2022/04/27 04:41:53;;;;;;;27.75;18.98;;;9.20;99.90;;;;;;4910912;29;20227;-79
2022/04/27 04:44:20;;;;;;;21.25;16.33;;;9.20;99.90;;;;;;4912139;29;20211;-80
2022/04/27 04:46:48;;;;;;;24.73;20.52;;;9.20;99.90;;;;;;4911839;29;20230;-80
2022/04/27 04:49:15;;;;;;;22.10;16.73;;;9.30;99.90;;;;;;4911972;29;20210;-80
2022/04/27 04:51:41;;;;;;;20.20;16.67;;;9.40;99.90;;;;;;4914022;29;20237;-79
2022/04/27 04:54:08;;;;;;;22.42;17.67;;;9.30;99.90;;;;;;4915500;29;20838;-79
2022/04/27 04:56:35;;;;;;;27.27;18.60;;;9.40;99.90;;;;;;4912961;29;20216;-80
2022/04/27 04:59:01;;;;;;;22.60;16.90;;;9.40;99.90;;;;;;4911990;29;20220;-80
2022/04/27 05:01:28;;;;;;;26.10;16.60;;;9.30;99.90;;;;;;4911194;29;20199;-80
2022/04/27 05:03:56;;;;;;;23.02;17.70;;;9.30;99.90;;;;;;4911653;29;20212;-80
2022/04/27 05:06:23;;;;;;;25.58;17.25;;;9.20;99.90;;;;;;4911367;29;20679;-80
2022/04/27 05:08:50;;;;;;;25.38;18.75;;;9.10;99.90;;;;;;4912074;29;20219;-80
2022/04/27 05:11:17;;;;;;;26.55;19.65;;;8.90;99.90;;;;;;4910797;29;20234;-80
2022/04/27 05:13:43;;;;;;;29.02;19.45;;;8.90;99.90;;;;;;4910963;29;20211;-81
2022/04/27 05:16:10;;;;;;;27.40;17.85;;;8.80;99.90;;;;;;4910726;29;20566;-80
2022/04/27 05:18:37;;;;;;;26.95;19.95;;;8.90;99.90;;;;;;4911381;29;20211;-80
2022/04/27 05:21:05;;;;;;;28.10;20.83;;;9.00;99.90;;;;;;4910297;29;20207;-80
2022/04/27 05:23:32;;;;;;;30.25;20.30;;;9.00;99.90;;;;;;4910901;29;20243;-80
2022/04/27 05:25:58;;;;;;;29.40;20.52;;;9.20;99.90;;;;;;4907300;29;20214;-80
2022/04/27 05:31:53;;;;;;;27.75;19.40;;;9.10;99.90;;;;;;4904250;29;20220;-81
2022/04/27 05:33:57;;;;;;;30.90;21.15;;;9.40;99.90;;;;;;4908412;29;20299;-80
2022/04/27 05:36:25;;;;;;;29.95;21.30;;;9.50;99.90;;;;;;4908702;29;20237;-81
2022/04/27 05:38:52;;;;;;;28.65;19.50;;;9.50;99.90;;;;;;4907806;29;20208;-81
2022/04/27 05:41:19;;;;;;;27.88;21.15;;;9.40;99.90;;;;;;4905910;29;20201;-80
2022/04/27 05:43:47;;;;;;;24.08;20.35;;;9.40;99.90;;;;;;4907904;29;20695;-81
2022/04/27 05:46:13;;;;;;;23.63;17.38;;;9.30;99.90;;;;;;4908588;29;20201;-80
2022/04/27 05:48:40;;;;;;;25.05;18.02;;;9.50;99.90;;;;;;4907621;29;20303;-80
2022/04/27 05:51:07;;;;;;;23.50;17.35;;;9.40;99.90;;;;;;4909949;29;20220;-80
2022/04/27 05:53:35;;;;;;;29.65;21.02;;;9.30;99.90;;;;;;4909400;29;20240;-80
2022/04/27 05:56:02;;;;;;;27.88;19.98;;;9.30;99.90;;;;;;4906660;29;20213;-80
2022/04/27 05:58:30;;;;;;;27.90;18.95;;;9.40;99.90;;;;;;4905667;29;20213;-80
2022/04/27 06:00:56;;;;;;;26.98;18.50;;;9.30;99.90;;;;;;4899872;29;20203;-80
2022/04/27 06:03:23;;;;;;;27.92;20.63;;;9.20;99.90;;;;;;4900488;29;20231;-80
2022/04/27 06:05:50;;;;;;;25.95;18.70;;;9.20;99.90;;;;;;4900686;29;20567;-80
2022/04/27 06:08:17;;;;;;;30.20;20.60;;;9.30;99.90;;;;;;4901066;29;20571;-79
2022/04/27 06:10:45;;;;;;;21.35;16.95;;;9.40;99.90;;;;;;4908217;29;20238;-79
2022/04/27 06:13:13;;;;;;;26.73;20.55;;;9.50;99.90;;;;;;4908550;29;20223;-79
2022/04/27 06:15:40;;;;;;;28.65;16.45;;;9.50;99.90;;;;;;4904800;29;20595;-78
2022/04/27 06:18:07;;;;;;;22.00;16.02;;;9.30;99.90;;;;;;4904282;29;20208;-82
2022/04/27 06:20:33;;;;;;;22.45;16.45;;;9.20;99.90;;;;;;4908448;29;20199;-79
2022/04/27 06:23:00;;;;;;;23.10;17.08;;;9.30;99.90;;;;;;4906400;29;20231;-79
2022/04/27 06:25:27;;;;;;;24.75;16.40;;;9.40;99.90;;;;;;4907481;29;20211;-80
2022/04/27 06:27:55;;;;;;;20.75;15.02;;;9.50;99.90;;;;;;4909714;29;20657;-78
2022/04/27 06:30:24;;;;;;;26.95;18.23;;;9.60;99.90;;;;;;4907697;29;20231;-79
2022/04/27 06:32:51;;;;;;;23.55;17.42;;;9.70;99.90;;;;;;4939722;23;20274;-86
2022/04/27 06:35:18;;;;;;;20.33;16.25;;;9.60;99.90;;;;;;4926035;29;20214;-83
2022/04/27 06:37:45;;;;;;;19.00;13.95;;;9.50;99.90;;;;;;4927282;29;20212;-83
2022/04/27 06:40:13;;;;;;;23.10;15.77;;;9.40;99.90;;;;;;4926370;29;20267;-83
2022/04/27 06:42:43;;;;;;;17.92;14.90;;;9.40;99.90;;;;;;4923088;29;20234;-82
2022/04/27 06:45:12;;;;;;;19.80;14.45;;;9.50;99.90;;;;;;4911547;29;20209;-83
2022/04/27 06:47:39;;;;;;;21.40;14.40;;;9.50;99.90;;;;;;4915175;29;20223;-80
2022/04/27 06:50:07;;;;;;;17.10;13.90;;;9.50;99.90;;;;;;4904220;29;20946;-83
2022/04/27 06:52:40;;;;;;;22.27;15.90;;;9.50;99.90;;;;;;4919171;29;20484;-83
2022/04/27 06:55:08;;;;;;;25.52;16.23;;;9.50;99.90;;;;;;4907788;29;20295;-82
2022/04/27 06:57:35;;;;;;;23.50;17.30;;;9.40;99.90;;;;;;4913744;29;20286;-82
2022/04/27 07:00:02;;;;;;;23.92;17.80;;;9.20;99.90;;;;;;4911650;29;20455;-82
2022/04/27 07:02:31;;;;;;;21.40;17.63;;;9.10;99.90;;;;;;4909185;29;20219;-82
2022/04/27 07:05:01;;;;;;;19.75;16.52;;;9.00;99.90;;;;;;4909662;29;20211;-87
2022/04/27 07:07:28;;;;;;;22.50;15.98;;;9.00;99.90;;;;;;4902911;29;20207;-85
2022/04/27 07:09:56;;;;;;;22.67;17.65;;;9.10;99.90;;;;;;4909544;29;20204;-85
2022/04/27 07:12:23;;;;;;;23.90;19.27;;;9.30;99.90;;;;;;4911215;29;20239;-85
2022/04/27 07:14:51;;;;;;;23.95;17.83;;;9.40;99.90;;;;;;4900772;29;20219;-85
2022/04/27 07:17:18;;;;;;;20.40;16.80;;;9.50;99.90;;;;;;4908973;29;20237;-85
2022/04/27 07:19:46;;;;;;;22.38;16.75;;;9.40;99.90;;;;;;4912879;29;20216;-83
2022/04/27 07:22:13;;;;;;;23.92;18.05;;;9.30;99.90;;;;;;4919639;29;20228;-83
2022/04/27 07:24:40;;;;;;;24.15;18.33;;;9.20;99.90;;;;;;4924712;29;20214;-82
2022/04/27 07:27:07;;;;;;;23.85;19.83;;;9.30;99.90;;;;;;4912050;29;20212;-85
2022/04/27 07:29:35;;;;;;;23.90;18.35;;;9.30;99.90;;;;;;4908441;29;20238;-85
2022/04/27 07:32:02;;;;;;;17.95;15.55;;;9.40;99.90;;;;;;4907180;29;20611;-85
2022/04/27 07:34:30;;;;;;;21.13;17.17;;;9.50;99.90;;;;;;4908498;29;20219;-85
2022/04/27 07:36:58;;;;;;;20.73;16.77;;;9.50;99.90;;;;;;4907321;29;20211;-84
2022/04/27 07:39:25;;;;;;;20.02;17.70;;;9.50;99.90;;;;;;4908348;29;20209;-83
2022/04/27 07:41:52;;;;;;;17.10;13.77;;;9.50;99.90;;;;;;4907395;29;20208;-85
2022/04/27 07:44:18;;;;;;;17.13;14.50;;;9.50;99.90;;;;;;4907941;29;20222;-85
2022/04/27 07:46:47;;;;;;;23.00;17.40;;;9.50;99.90;;;;;;4908014;29;20231;-85
2022/04/27 07:49:14;;;;;;;19.83;16.13;;;9.50;99.90;;;;;;4908700;29;20212;-85
2022/04/27 07:51:41;;;;;;;20.75;15.65;;;9.60;99.90;;;;;;4908782;29;20275;-84
2022/04/27 07:54:09;;;;;;;19.83;15.00;;;9.50;99.90;;;;;;4908942;29;20243;-85
2022/04/27 07:56:36;;;;;;;21.93;17.60;;;9.80;99.90;;;;;;4908672;29;20208;-85
2022/04/27 07:59:02;;;;;;;20.90;16.55;;;10.00;99.90;;;;;;4908681;29;20456;-85
2022/04/27 08:01:30;;;;;;;18.70;14.40;;;10.20;99.90;;;;;;4908111;29;20213;-85
2022/04/27 08:03:57;;;;;;;18.67;15.87;;;10.40;99.90;;;;;;4909586;29;20999;-86
2022/04/27 08:06:24;;;;;;;17.83;14.23;;;10.60;99.90;;;;;;4909233;29;20466;-85
2022/04/27 08:08:50;;;;;;;14.43;11.83;;;10.80;99.90;;;;;;4909491;29;20461;-85
2022/04/27 08:11:19;;;;;;;14.30;12.87;;;11.00;99.90;;;;;;4908892;29;20517;-85
2022/04/27 08:13:46;;;;;;;15.17;13.03;;;11.20;99.90;;;;;;4908674;29;20485;-84
2022/04/27 08:16:13;;;;;;;15.53;13.00;;;11.30;99.90;;;;;;4909882;29;20550;-85
2022/04/27 08:18:41;;;;;;;13.23;11.37;;;11.40;99.90;;;;;;4910254;29;20457;-85
2022/04/27 08:21:18;;;;;;;14.27;11.80;;;11.60;99.90;;;;;;4909796;29;20545;-85
2022/04/27 08:23:48;;;;;;;12.77;11.33;;;11.60;99.90;;;;;;4910953;29;20477;-85
2022/04/27 08:26:16;;;;;;;12.70;10.87;;;11.80;99.90;;;;;;4915150;29;20481;-85
2022/04/27 08:28:45;;;;;;;13.17;11.83;;;11.90;99.90;;;;;;4918709;29;20462;-83
2022/04/27 08:31:13;;;;;;;11.80;10.53;;;12.10;99.90;;;;;;4918910;29;20478;-83
2022/04/27 08:33:40;;;;;;;12.80;11.40;;;12.10;99.90;;;;;;4918715;29;20489;-83
2022/04/27 08:36:08;;;;;;;13.67;11.20;;;11.90;99.90;;;;;;4921625;29;20486;-83
2022/04/27 08:38:35;;;;;;;13.37;11.67;;;12.10;99.90;;;;;;4922744;29;20523;-83
2022/04/27 08:41:02;;;;;;;12.07;10.77;;;12.20;99.90;;;;;;4922413;29;20482;-84
2022/04/27 08:43:29;;;;;;;12.10;10.80;;;12.30;99.90;;;;;;4922476;29;20530;-83
2022/04/27 08:46:08;;;;;;;15.30;10.63;;;12.40;99.90;;;;;;4922259;29;20456;-84
2022/04/27 08:48:35;;;;;;;11.17;9.97;;;12.40;99.90;;;;;;4921909;29;20490;-83
2022/04/27 08:51:03;;;;;;;15.30;11.90;;;12.40;99.90;;;;;;4922174;29;20454;-83
2022/04/27 08:53:30;;;;;;;11.93;10.30;;;12.50;99.90;;;;;;4921619;29;20497;-86
2022/04/27 08:55:56;;;;;;;13.80;9.60;;;12.60;99.90;;;;;;4913404;29;20546;-86
2022/04/27 08:58:24;;;;;;;11.73;10.63;;;12.70;99.90;;;;;;4914038;29;20461;-86
2022/04/27 09:00:51;;;;;;;11.57;10.33;;;12.90;99.90;;;;;;4912587;29;20487;-86
2022/04/27 09:03:27;;;;;;;13.37;12.07;;;13.00;99.90;;;;;;4911992;29;20841;-87
2022/04/27 09:05:58;;;;;;;12.07;10.87;;;13.10;99.90;;;;;;4911512;29;20462;-87
2022/04/27 09:08:26;;;;;;;11.67;10.40;;;13.00;99.90;;;;;;4912630;29;20492;-86
2022/04/27 09:11:14;;;;;;;14.03;11.13;;;13.20;99.90;;;;;;4911632;29;21118;-87
2022/04/27 09:13:45;;;;;;;13.73;10.73;;;13.30;99.90;;;;;;4912346;29;20479;-86
2022/04/27 09:16:13;;;;;;;12.83;10.67;;;13.50;99.90;;;;;;4911024;29;20470;-87
2022/04/27 09:21:59;;;;;;;14.00;10.97;;;13.80;99.90;;;;;;4912225;29;20439;-86
2022/04/27 09:24:27;;;;;;;15.00;13.50;;;14.20;99.90;;;;;;4913266;29;20461;-87
2022/04/27 09:27:03;;;;;;;10.97;9.90;;;14.20;99.90;;;;;;4912848;29;20460;-86
2022/04/27 09:29:30;;;;;;;10.73;9.33;;;14.50;99.90;;;;;;4910450;29;20455;-87
2022/04/27 09:31:57;;;;;;;10.60;9.70;;;14.80;99.90;;;;;;4917098;29;20495;-87
2022/04/27 09:34:29;;;;;;;10.93;9.27;;;15.10;99.90;;;;;;4917358;29;20455;-86
2022/04/27 09:36:56;;;;;;;9.60;8.70;;;15.30;99.90;;;;;;4909207;29;20436;-86
2022/04/27 09:39:25;;;;;;;10.73;9.63;;;15.60;99.90;;;;;;4907977;29;20444;-86
2022/04/27 09:41:52;;;;;;;10.80;9.80;;;15.90;99.90;;;;;;4907330;29;20978;-86
2022/04/27 09:44:29;;;;;;;10.37;9.27;;;16.10;99.90;;;;;;4908952;29;20464;-87
2022/04/27 09:46:56;;;;;;;10.17;9.27;;;16.30;99.90;;;;;;4907982;29;20460;-86
2022/04/27 09:49:22;;;;;;;10.43;9.27;;;16.40;99.90;;;;;;4908053;29;20478;-86
2022/04/27 09:51:52;;;;;;;8.87;7.87;;;16.60;99.90;;;;;;4904066;29;20493;-84
2022/04/27 09:54:21;;;;;;;10.27;8.63;;;16.70;99.30;;;;;;4902988;29;20557;-86
2022/04/27 09:56:54;;;;;;;8.00;7.30;;;16.80;98.80;;;;;;4902530;29;20913;-85
2022/04/27 09:59:26;;;;;;;8.47;7.70;;;16.90;98.90;;;;;;4903130;29;20453;-86
2022/04/27 10:01:55;;;;;;;9.00;8.10;;;17.00;98.70;;;;;;4902119;29;20453;-86
2022/04/27 10:04:24;;;;;;;8.40;7.60;;;17.10;98.00;;;;;;4901800;29;20460;-86
2022/04/27 10:06:53;;;;;;;8.10;7.23;;;17.20;98.40;;;;;;4902416;29;20474;-86
2022/04/27 10:09:20;;;;;;;7.13;6.40;;;17.30;98.60;;;;;;4902243;29;20457;-85
2022/04/27 10:11:46;;;;;;;9.27;7.20;;;17.30;97.30;;;;;;4901562;29;20499;-87
2022/04/27 10:14:14;;;;;;;7.80;7.00;;;17.50;97.80;;;;;;4902087;29;20468;-86
2022/04/27 10:16:41;;;;;;;7.67;6.63;;;17.60;96.50;;;;;;4901571;29;20471;-86
2022/04/27 10:19:11;;;;;;;13.50;8.10;;;17.70;96.90;;;;;;4901740;29;20524;-86
2022/04/27 10:21:43;;;;;;;9.20;8.50;;;17.80;96.30;;;;;;4901607;29;20448;-86
2022/04/27 10:24:11;;;;;;;8.80;7.90;;;17.60;95.30;;;;;;4901607;29;20922;-86
2022/04/27 10:26:39;;;;;;;8.17;7.50;;;17.00;95.80;;;;;;4901597;29;20456;-86
2022/04/27 10:29:08;;;;;;;6.97;6.33;;;16.60;96.50;;;;;;4902004;29;20471;-85
2022/04/27 10:32:02;;;;;;;6.00;5.50;;;16.80;96.60;;;;;;4901360;29;20465;-86
2022/04/27 10:34:29;;;;;;;7.67;6.80;;;17.10;97.70;;;;;;4901617;29;20456;-86
2022/04/27 10:36:56;;;;;;;6.97;6.37;;;17.40;96.50;;;;;;4901510;29;20457;-85
2022/04/27 10:39:26;;;;;;;7.10;6.50;;;17.70;95.60;;;;;;4901373;29;20465;-85
2022/04/27 10:42:15;;;;;;;5.90;5.40;;;17.70;95.00;;;;;;4901374;29;20977;-86
2022/04/27 10:45:10;;;;;;;6.50;5.90;;;17.70;95.20;;;;;;4901649;29;20443;-85
2022/04/27 10:47:41;;;;;;;7.33;6.63;;;17.70;93.80;;;;;;4900652;29;20462;-86
2022/04/27 10:50:25;;;;;;;7.23;6.53;;;17.60;94.00;;;;;;4900842;29;20453;-86
2022/04/27 10:52:55;;;;;;;6.70;6.10;;;17.50;94.10;;;;;;4900559;29;21006;-86
2022/04/27 10:55:54;;;;;;;6.20;5.63;;;17.30;94.00;;;;;;4901071;29;20485;-87
2022/04/27 10:58:42;;;;;;;5.53;5.03;;;17.00;95.40;;;;;;4900483;29;21026;-86
2022/04/27 11:01:31;;;;;;;5.80;5.30;;;16.90;95.10;;;;;;4900660;29;20901;-86
2022/04/27 11:04:05;;;;;;;4.93;4.53;;;16.90;95.70;;;;;;4901006;29;20476;-85
2022/04/27 11:07:05;;;;;;;5.10;4.70;;;16.90;95.50;;;;;;4901420;29;20463;-86
2022/04/27 11:09:50;;;;;;;5.83;5.27;;;16.80;95.10;;;;;;4900658;29;20836;-86
2022/04/27 11:12:19;;;;;;;6.40;5.23;;;16.70;95.80;;;;;;4900881;29;20501;-86
2022/04/27 11:14:47;;;;;;;4.60;4.20;;;16.70;94.70;;;;;;4901182;29;20462;-85
2022/04/27 11:17:26;;;;;;;5.20;4.70;;;16.60;95.30;;;;;;4904589;29;20448;-87
2022/04/27 11:19:56;;;;;;;5.67;5.17;;;16.60;95.40;;;;;;4904324;29;20462;-86
2022/04/27 11:22:23;;;;;;;5.50;5.00;;;16.50;95.40;;;;;;4902997;29;20475;-86
2022/04/27 11:24:50;;;;;;;4.97;4.53;;;16.50;95.50;;;;;;4902458;29;20466;-86
2022/04/27 11:27:33;;;;;;;5.03;4.63;;;16.50;95.40;;;;;;4903258;29;20460;-86
2022/04/27 11:30:01;;;;;;;4.80;4.40;;;16.40;95.00;;;;;;4902392;29;20445;-86
2022/04/27 11:32:31;;;;;;;5.07;4.63;;;16.50;95.10;;;;;;4901360;29;20542;-87
2022/04/27 11:34:58;;;;;;;4.13;3.73;;;16.60;95.30;;;;;;4900923;29;20464;-86
2022/04/27 11:37:25;;;;;;;4.03;3.73;;;16.80;95.70;;;;;;4900896;29;20981;-86
2022/04/27 11:39:53;;;;;;;5.63;5.00;;;16.90;95.20;;;;;;4901332;29;20463;-86
2022/04/27 11:42:20;;;;;;;5.63;5.13;;;17.10;94.50;;;;;;4900232;29;21050;-87
2022/04/27 11:44:53;;;;;;;5.27;4.83;;;17.20;94.20;;;;;;4901308;29;20457;-87
2022/04/27 11:47:27;;;;;;;5.33;4.93;;;17.30;94.40;;;;;;4901279;29;20819;-86
2022/04/27 11:49:56;;;;;;;5.33;4.97;;;17.30;93.90;;;;;;4901101;29;20461;-86
2022/04/27 11:52:23;;;;;;;4.87;4.57;;;17.50;94.40;;;;;;4900838;29;20691;-87
2022/04/27 11:54:50;;;;;;;4.70;4.37;;;17.70;94.20;;;;;;4902520;29;20465;-86
2022/04/27 11:57:23;;;;;;;6.07;5.57;;;17.90;94.60;;;;;;4900182;29;20462;-86
2022/04/27 11:59:52;;;;;;;5.33;4.93;;;18.30;93.50;;;;;;4901241;29;20463;-86
2022/04/27 12:02:23;;;;;;;5.53;5.13;;;18.50;93.20;;;;;;4901502;29;20478;-86
2022/04/27 12:04:51;;;;;;;5.20;4.80;;;18.40;92.80;;;;;;4901836;29;20462;-86
2022/04/27 12:07:21;;;;;;;5.20;4.80;;;18.80;93.80;;;;;;4901154;29;20514;-86
2022/04/27 12:09:59;;;;;;;4.40;4.10;;;19.40;92.20;;;;;;4902132;29;20465;-86
2022/04/27 12:12:27;;;;;;;6.43;5.87;;;19.80;91.00;;;;;;4903767;29;20490;-86
2022/04/27 12:14:57;;;;;;;4.43;4.13;;;20.30;89.50;;;;;;4903634;29;20461;-86
2022/04/27 12:17:41;;;;;;;4.53;4.23;;;20.80;88.20;;;;;;4903521;29;20455;-86
2022/04/27 12:20:11;;;;;;;5.50;4.70;;;21.40;88.40;;;;;;4903051;29;20460;-86
2022/04/27 12:22:51;;;;;;;4.00;3.70;;;22.20;86.20;;;;;;4902174;29;20477;-84
2022/04/27 12:25:17;;;;;;;9.03;4.37;;;23.20;81.90;;;;;;4903487;29;20474;-86
2022/04/27 12:27:44;;;;;;;3.40;3.17;;;23.50;72.20;;;;;;4904447;29;20477;-86
2022/04/27 12:30:18;;;;;;;4.30;4.00;;;23.50;73.10;;;;;;4908191;29;20463;-86
2022/04/27 12:32:57;;;;;;;4.17;3.87;;;23.90;75.60;;;;;;4934216;23;20510;-81
2022/04/27 13:02:46;;;;;;;3.70;3.50;;;26.60;56.10;;;;;;4844978;29;20442;-82
2022/04/27 14:01:46;;;;;;;3.17;2.97;;;18.30;72.80;;;;;;4691339;30;20574;-83
2022/04/27 14:15:28;;;;;;;4.50;4.20;;;17.80;76.10;;;;;;4753613;30;20991;-83
2022/04/27 14:18:18;;;;;;;4.87;4.47;;;17.80;77.30;;;;;;4753554;30;20466;-83
2022/04/27 14:21:07;;;;;;;4.87;4.47;;;17.80;79.40;;;;;;4753239;30;20441;-83
2022/04/27 14:26:23;;;;;;;5.33;4.93;;;17.50;79.90;;;;;;4752263;30;20468;-84
2022/04/27 14:31:49;;;;;;;5.60;5.20;;;17.30;79.20;;;;;;4837200;29;20508;-83
2022/04/27 14:34:25;;;;;;;5.37;4.87;;;17.40;79.40;;;;;;4861181;29;20576;-84
2022/04/27 14:36:54;;;;;;;5.00;4.70;;;17.60;79.30;;;;;;4861258;29;21016;-83
2022/04/27 15:01:23;;;;;;;4.37;4.00;;;24.40;65.30;;;;;;4752884;30;20451;-82
2022/04/27 15:03:50;;;;;;;4.43;4.13;;;25.70;59.60;;;;;;4738426;30;20514;-81